sensor_id;sensor_type;location;lat;lon;timestamp;P1;durP1;ratioP1;P2;durP2;ratioP2
60851;SDS011;48553;50.766;2.900;2023-02-03T00:00:52;10.13;;;2.47;;
60851;SDS011;48553;50.766;2.900;2023-02-03T00:03:52;8.05;;;2.00;;
60851;SDS011;48553;50.766;2.900;2023-02-03T00:06:52;11.75;;;1.75;;
60851;SDS011;48553;50.766;2.900;2023-02-03T00:09:54;8.60;;;1.90;;
60851;SDS011;48553;50.766;2.900;2023-02-03T00:12:55;6.68;;;1.63;;
60851;SDS011;48553;50.766;2.900;2023-02-03T00:15:56;8.48;;;1.80;;
60851;SDS011;48553;50.766;2.900;2023-02-03T00:18:57;12.27;;;1.70;;
60851;SDS011;48553;50.766;2.900;2023-02-03T00:21:57;6.15;;;1.70;;
60851;SDS011;48553;50.766;2.900;2023-02-03T00:24:58;10.98;;;1.70;;
60851;SDS011;48553;50.766;2.900;2023-02-03T00:27:59;10.27;;;1.60;;
60851;SDS011;48553;50.766;2.900;2023-02-03T00:30:59;7.55;;;1.90;;
60851;SDS011;48553;50.766;2.900;2023-02-03T00:34:00;8.82;;;1.60;;
60851;SDS011;48553;50.766;2.900;2023-02-03T00:37:00;8.07;;;1.65;;
60851;SDS011;48553;50.766;2.900;2023-02-03T00:40:01;6.30;;;1.30;;
60851;SDS011;48553;50.766;2.900;2023-02-03T00:43:01;8.80;;;1.58;;
60851;SDS011;48553;50.766;2.900;2023-02-03T00:46:02;7.90;;;1.48;;
60851;SDS011;48553;50.766;2.900;2023-02-03T00:49:02;9.57;;;2.00;;
60851;SDS011;48553;50.766;2.900;2023-02-03T00:52:03;10.15;;;1.85;;
60851;SDS011;48553;50.766;2.900;2023-02-03T00:55:04;10.20;;;1.63;;
60851;SDS011;48553;50.766;2.900;2023-02-03T00:58:05;8.70;;;2.00;;
60851;SDS011;48553;50.766;2.900;2023-02-03T01:01:06;6.55;;;1.52;;
60851;SDS011;48553;50.766;2.900;2023-02-03T01:04:07;6.32;;;1.38;;
60851;SDS011;48553;50.766;2.900;2023-02-03T01:07:07;8.02;;;1.67;;
60851;SDS011;48553;50.766;2.900;2023-02-03T01:10:08;8.88;;;1.88;;
60851;SDS011;48553;50.766;2.900;2023-02-03T01:13:09;9.77;;;1.77;;
60851;SDS011;48553;50.766;2.900;2023-02-03T01:16:10;8.20;;;1.85;;
60851;SDS011;48553;50.766;2.900;2023-02-03T01:19:12;9.80;;;1.85;;
60851;SDS011;48553;50.766;2.900;2023-02-03T01:22:13;11.68;;;1.92;;
60851;SDS011;48553;50.766;2.900;2023-02-03T01:25:14;10.02;;;2.17;;
60851;SDS011;48553;50.766;2.900;2023-02-03T01:28:14;10.18;;;2.05;;
60851;SDS011;48553;50.766;2.900;2023-02-03T01:31:16;10.75;;;2.03;;
60851;SDS011;48553;50.766;2.900;2023-02-03T01:34:18;8.32;;;1.67;;
60851;SDS011;48553;50.766;2.900;2023-02-03T01:37:18;8.48;;;1.70;;
60851;SDS011;48553;50.766;2.900;2023-02-03T01:40:19;9.65;;;1.55;;
60851;SDS011;48553;50.766;2.900;2023-02-03T01:49:56;6.47;;;1.35;;
60851;SDS011;48553;50.766;2.900;2023-02-03T01:52:59;6.32;;;1.55;;
60851;SDS011;48553;50.766;2.900;2023-02-03T01:56:02;9.48;;;1.65;;
60851;SDS011;48553;50.766;2.900;2023-02-03T01:59:04;7.95;;;1.40;;
60851;SDS011;48553;50.766;2.900;2023-02-03T02:02:05;7.32;;;1.20;;
60851;SDS011;48553;50.766;2.900;2023-02-03T02:08:15;5.60;;;1.20;;
60851;SDS011;48553;50.766;2.900;2023-02-03T02:11:18;4.68;;;0.95;;
60851;SDS011;48553;50.766;2.900;2023-02-03T02:14:20;8.48;;;1.20;;
60851;SDS011;48553;50.766;2.900;2023-02-03T02:34:02;4.13;;;0.90;;
60851;SDS011;48553;50.766;2.900;2023-02-03T02:37:13;4.75;;;1.00;;
60851;SDS011;48553;50.766;2.900;2023-02-03T02:40:30;6.18;;;0.77;;
60851;SDS011;48553;50.766;2.900;2023-02-03T02:46:47;5.80;;;0.90;;
60851;SDS011;48553;50.766;2.900;2023-02-03T02:53:08;3.67;;;0.80;;
60851;SDS011;48553;50.766;2.900;2023-02-03T02:56:10;6.65;;;1.00;;
60851;SDS011;48553;50.766;2.900;2023-02-03T02:59:14;2.72;;;0.90;;
60851;SDS011;48553;50.766;2.900;2023-02-03T03:02:14;4.85;;;1.00;;
60851;SDS011;48553;50.766;2.900;2023-02-03T03:05:16;5.50;;;1.17;;
60851;SDS011;48553;50.766;2.900;2023-02-03T03:08:18;6.75;;;1.13;;
60851;SDS011;48553;50.766;2.900;2023-02-03T03:11:25;5.38;;;0.93;;
60851;SDS011;48553;50.766;2.900;2023-02-03T03:14:30;4.15;;;1.00;;
60851;SDS011;48553;50.766;2.900;2023-02-03T03:17:32;6.45;;;1.20;;
60851;SDS011;48553;50.766;2.900;2023-02-03T03:20:36;7.20;;;1.25;;
60851;SDS011;48553;50.766;2.900;2023-02-03T03:23:42;8.35;;;1.55;;
60851;SDS011;48553;50.766;2.900;2023-02-03T03:30:02;4.38;;;1.00;;
60851;SDS011;48553;50.766;2.900;2023-02-03T03:33:07;5.65;;;1.27;;
60851;SDS011;48553;50.766;2.900;2023-02-03T03:46:08;5.05;;;1.40;;
60851;SDS011;48553;50.766;2.900;2023-02-03T03:49:14;5.80;;;1.30;;
60851;SDS011;48553;50.766;2.900;2023-02-03T03:52:17;8.77;;;1.65;;
60851;SDS011;48553;50.766;2.900;2023-02-03T03:55:23;9.27;;;1.30;;
60851;SDS011;48553;50.766;2.900;2023-02-03T03:58:30;4.68;;;1.08;;
60851;SDS011;48553;50.766;2.900;2023-02-03T04:01:31;6.65;;;1.30;;
60851;SDS011;48553;50.766;2.900;2023-02-03T04:04:33;10.65;;;1.20;;
60851;SDS011;48553;50.766;2.900;2023-02-03T04:07:37;8.68;;;1.50;;
60851;SDS011;48553;50.766;2.900;2023-02-03T04:10:39;9.52;;;1.35;;
60851;SDS011;48553;50.766;2.900;2023-02-03T04:13:41;8.02;;;1.30;;
60851;SDS011;48553;50.766;2.900;2023-02-03T04:16:41;5.47;;;1.15;;
60851;SDS011;48553;50.766;2.900;2023-02-03T04:19:43;6.30;;;1.02;;
60851;SDS011;48553;50.766;2.900;2023-02-03T04:22:43;6.35;;;1.10;;
60851;SDS011;48553;50.766;2.900;2023-02-03T04:25:44;8.48;;;1.30;;
60851;SDS011;48553;50.766;2.900;2023-02-03T04:28:44;4.55;;;1.00;;
60851;SDS011;48553;50.766;2.900;2023-02-03T04:31:45;8.10;;;1.27;;
60851;SDS011;48553;50.766;2.900;2023-02-03T04:34:45;7.75;;;1.40;;
60851;SDS011;48553;50.766;2.900;2023-02-03T04:37:45;7.93;;;1.60;;
60851;SDS011;48553;50.766;2.900;2023-02-03T04:40:46;6.38;;;1.23;;
60851;SDS011;48553;50.766;2.900;2023-02-03T04:43:47;7.32;;;1.10;;
60851;SDS011;48553;50.766;2.900;2023-02-03T04:46:47;5.07;;;1.00;;
60851;SDS011;48553;50.766;2.900;2023-02-03T04:49:48;4.13;;;1.00;;
60851;SDS011;48553;50.766;2.900;2023-02-03T04:52:48;7.90;;;1.45;;
60851;SDS011;48553;50.766;2.900;2023-02-03T04:55:48;6.20;;;1.27;;
60851;SDS011;48553;50.766;2.900;2023-02-03T04:58:49;6.97;;;1.17;;
60851;SDS011;48553;50.766;2.900;2023-02-03T05:01:49;6.07;;;1.27;;
60851;SDS011;48553;50.766;2.900;2023-02-03T05:04:49;6.60;;;1.20;;
60851;SDS011;48553;50.766;2.900;2023-02-03T05:07:50;6.07;;;1.27;;
60851;SDS011;48553;50.766;2.900;2023-02-03T05:10:50;6.80;;;1.17;;
60851;SDS011;48553;50.766;2.900;2023-02-03T05:13:51;4.43;;;1.02;;
60851;SDS011;48553;50.766;2.900;2023-02-03T05:16:52;5.28;;;1.30;;
60851;SDS011;48553;50.766;2.900;2023-02-03T05:19:52;7.22;;;1.20;;
60851;SDS011;48553;50.766;2.900;2023-02-03T05:22:53;6.13;;;1.30;;
60851;SDS011;48553;50.766;2.900;2023-02-03T05:25:53;4.63;;;1.15;;
60851;SDS011;48553;50.766;2.900;2023-02-03T05:28:54;9.60;;;1.27;;
60851;SDS011;48553;50.766;2.900;2023-02-03T05:31:54;5.78;;;1.05;;
60851;SDS011;48553;50.766;2.900;2023-02-03T05:34:55;6.00;;;1.13;;
60851;SDS011;48553;50.766;2.900;2023-02-03T05:37:55;5.25;;;1.08;;
60851;SDS011;48553;50.766;2.900;2023-02-03T05:40:55;6.28;;;1.05;;
60851;SDS011;48553;50.766;2.900;2023-02-03T05:44:15;3.97;;;0.90;;
60851;SDS011;48553;50.766;2.900;2023-02-03T05:47:15;5.25;;;0.90;;
60851;SDS011;48553;50.766;2.900;2023-02-03T05:50:16;6.60;;;1.40;;
60851;SDS011;48553;50.766;2.900;2023-02-03T05:53:16;6.82;;;1.00;;
60851;SDS011;48553;50.766;2.900;2023-02-03T05:56:16;8.60;;;1.10;;
60851;SDS011;48553;50.766;2.900;2023-02-03T05:59:17;6.15;;;1.50;;
60851;SDS011;48553;50.766;2.900;2023-02-03T06:02:17;7.50;;;1.20;;
60851;SDS011;48553;50.766;2.900;2023-02-03T06:05:18;7.65;;;1.33;;
60851;SDS011;48553;50.766;2.900;2023-02-03T06:08:19;6.55;;;1.23;;
60851;SDS011;48553;50.766;2.900;2023-02-03T06:11:20;7.65;;;1.42;;
60851;SDS011;48553;50.766;2.900;2023-02-03T06:14:23;7.78;;;1.20;;
60851;SDS011;48553;50.766;2.900;2023-02-03T06:17:23;6.10;;;1.30;;
60851;SDS011;48553;50.766;2.900;2023-02-03T06:20:24;7.22;;;1.45;;
60851;SDS011;48553;50.766;2.900;2023-02-03T06:23:24;5.05;;;1.20;;
60851;SDS011;48553;50.766;2.900;2023-02-03T06:26:24;7.18;;;1.40;;
60851;SDS011;48553;50.766;2.900;2023-02-03T06:29:25;10.38;;;1.35;;
60851;SDS011;48553;50.766;2.900;2023-02-03T06:32:25;5.88;;;1.08;;
60851;SDS011;48553;50.766;2.900;2023-02-03T06:35:26;4.90;;;1.02;;
60851;SDS011;48553;50.766;2.900;2023-02-03T06:38:26;6.22;;;1.25;;
60851;SDS011;48553;50.766;2.900;2023-02-03T06:41:27;4.78;;;1.08;;
60851;SDS011;48553;50.766;2.900;2023-02-03T06:44:29;6.40;;;1.30;;
60851;SDS011;48553;50.766;2.900;2023-02-03T06:47:29;10.40;;;1.70;;
60851;SDS011;48553;50.766;2.900;2023-02-03T06:50:30;7.78;;;1.13;;
60851;SDS011;48553;50.766;2.900;2023-02-03T06:53:30;7.63;;;1.33;;
60851;SDS011;48553;50.766;2.900;2023-02-03T06:56:31;6.03;;;1.20;;
60851;SDS011;48553;50.766;2.900;2023-02-03T06:59:31;5.15;;;1.23;;
60851;SDS011;48553;50.766;2.900;2023-02-03T07:02:31;11.13;;;1.90;;
60851;SDS011;48553;50.766;2.900;2023-02-03T07:05:32;9.38;;;1.67;;
60851;SDS011;48553;50.766;2.900;2023-02-03T07:08:32;14.73;;;2.28;;
60851;SDS011;48553;50.766;2.900;2023-02-03T07:11:33;9.77;;;1.63;;
60851;SDS011;48553;50.766;2.900;2023-02-03T07:14:33;8.52;;;1.52;;
60851;SDS011;48553;50.766;2.900;2023-02-03T07:17:35;6.32;;;1.13;;
60851;SDS011;48553;50.766;2.900;2023-02-03T07:20:35;7.78;;;1.33;;
60851;SDS011;48553;50.766;2.900;2023-02-03T07:23:35;7.95;;;1.73;;
60851;SDS011;48553;50.766;2.900;2023-02-03T07:26:36;6.47;;;1.27;;
60851;SDS011;48553;50.766;2.900;2023-02-03T07:29:36;5.20;;;1.23;;
60851;SDS011;48553;50.766;2.900;2023-02-03T07:32:37;7.30;;;1.25;;
60851;SDS011;48553;50.766;2.900;2023-02-03T07:35:37;3.75;;;1.13;;
60851;SDS011;48553;50.766;2.900;2023-02-03T07:38:37;7.78;;;1.40;;
60851;SDS011;48553;50.766;2.900;2023-02-03T07:41:38;5.30;;;1.30;;
60851;SDS011;48553;50.766;2.900;2023-02-03T07:44:39;6.38;;;1.20;;
60851;SDS011;48553;50.766;2.900;2023-02-03T07:47:39;5.95;;;1.23;;
60851;SDS011;48553;50.766;2.900;2023-02-03T07:50:41;6.38;;;1.30;;
60851;SDS011;48553;50.766;2.900;2023-02-03T07:53:41;7.93;;;1.40;;
60851;SDS011;48553;50.766;2.900;2023-02-03T07:56:42;6.10;;;1.48;;
60851;SDS011;48553;50.766;2.900;2023-02-03T07:59:42;7.40;;;1.48;;
60851;SDS011;48553;50.766;2.900;2023-02-03T08:06:14;5.30;;;1.55;;
60851;SDS011;48553;50.766;2.900;2023-02-03T08:09:15;5.53;;;1.33;;
60851;SDS011;48553;50.766;2.900;2023-02-03T08:12:16;6.97;;;1.33;;
60851;SDS011;48553;50.766;2.900;2023-02-03T08:15:16;6.05;;;1.35;;
60851;SDS011;48553;50.766;2.900;2023-02-03T08:18:16;4.97;;;1.27;;
60851;SDS011;48553;50.766;2.900;2023-02-03T08:21:17;9.00;;;1.30;;
60851;SDS011;48553;50.766;2.900;2023-02-03T08:24:17;6.70;;;1.33;;
60851;SDS011;48553;50.766;2.900;2023-02-03T08:27:19;6.20;;;1.48;;
60851;SDS011;48553;50.766;2.900;2023-02-03T08:30:21;4.22;;;1.25;;
60851;SDS011;48553;50.766;2.900;2023-02-03T08:33:22;4.07;;;1.40;;
60851;SDS011;48553;50.766;2.900;2023-02-03T08:36:22;9.95;;;1.70;;
60851;SDS011;48553;50.766;2.900;2023-02-03T08:39:23;6.03;;;1.27;;
60851;SDS011;48553;50.766;2.900;2023-02-03T08:42:24;6.03;;;1.02;;
60851;SDS011;48553;50.766;2.900;2023-02-03T08:45:24;4.10;;;1.20;;
60851;SDS011;48553;50.766;2.900;2023-02-03T08:48:25;5.22;;;1.33;;
60851;SDS011;48553;50.766;2.900;2023-02-03T08:51:25;5.93;;;1.15;;
60851;SDS011;48553;50.766;2.900;2023-02-03T08:54:26;5.72;;;1.13;;
60851;SDS011;48553;50.766;2.900;2023-02-03T08:57:26;5.22;;;1.27;;
60851;SDS011;48553;50.766;2.900;2023-02-03T09:00:27;5.78;;;1.13;;
60851;SDS011;48553;50.766;2.900;2023-02-03T09:03:28;5.97;;;1.23;;
60851;SDS011;48553;50.766;2.900;2023-02-03T09:06:29;6.18;;;1.15;;
60851;SDS011;48553;50.766;2.900;2023-02-03T09:09:30;7.68;;;1.52;;
60851;SDS011;48553;50.766;2.900;2023-02-03T09:12:30;7.03;;;1.20;;
60851;SDS011;48553;50.766;2.900;2023-02-03T09:15:31;5.60;;;1.25;;
60851;SDS011;48553;50.766;2.900;2023-02-03T09:18:31;6.40;;;1.60;;
60851;SDS011;48553;50.766;2.900;2023-02-03T09:21:32;8.30;;;1.50;;
60851;SDS011;48553;50.766;2.900;2023-02-03T09:24:32;4.85;;;1.30;;
60851;SDS011;48553;50.766;2.900;2023-02-03T09:27:33;4.22;;;1.50;;
60851;SDS011;48553;50.766;2.900;2023-02-03T09:30:33;7.13;;;1.20;;
60851;SDS011;48553;50.766;2.900;2023-02-03T09:33:34;5.78;;;1.15;;
60851;SDS011;48553;50.766;2.900;2023-02-03T09:36:34;5.25;;;1.17;;
60851;SDS011;48553;50.766;2.900;2023-02-03T09:39:36;6.47;;;1.05;;
60851;SDS011;48553;50.766;2.900;2023-02-03T09:45:43;3.33;;;1.10;;
60851;SDS011;48553;50.766;2.900;2023-02-03T09:48:45;7.15;;;1.58;;
60851;SDS011;48553;50.766;2.900;2023-02-03T09:51:49;4.72;;;1.40;;
60851;SDS011;48553;50.766;2.900;2023-02-03T09:54:57;7.82;;;1.30;;
60851;SDS011;48553;50.766;2.900;2023-02-03T09:58:04;3.47;;;0.90;;
60851;SDS011;48553;50.766;2.900;2023-02-03T10:01:12;4.70;;;1.05;;
60851;SDS011;48553;50.766;2.900;2023-02-03T10:08:29;4.20;;;1.33;;
60851;SDS011;48553;50.766;2.900;2023-02-03T10:17:39;4.68;;;1.02;;
60851;SDS011;48553;50.766;2.900;2023-02-03T10:20:46;4.60;;;0.98;;
60851;SDS011;48553;50.766;2.900;2023-02-03T10:23:50;5.70;;;1.20;;
60851;SDS011;48553;50.766;2.900;2023-02-03T10:26:54;3.80;;;1.13;;
60851;SDS011;48553;50.766;2.900;2023-02-03T10:30:17;6.50;;;1.13;;
60851;SDS011;48553;50.766;2.900;2023-02-03T10:33:18;3.92;;;1.08;;
60851;SDS011;48553;50.766;2.900;2023-02-03T10:36:20;6.50;;;1.30;;
60851;SDS011;48553;50.766;2.900;2023-02-03T10:42:43;4.20;;;1.20;;
60851;SDS011;48553;50.766;2.900;2023-02-03T10:46:05;5.35;;;1.10;;
60851;SDS011;48553;50.766;2.900;2023-02-03T10:49:06;4.63;;;1.30;;
60851;SDS011;48553;50.766;2.900;2023-02-03T10:52:07;4.43;;;1.20;;
60851;SDS011;48553;50.766;2.900;2023-02-03T10:55:29;5.80;;;1.48;;
60851;SDS011;48553;50.766;2.900;2023-02-03T10:58:30;4.70;;;1.33;;
60851;SDS011;48553;50.766;2.900;2023-02-03T11:01:46;6.95;;;1.50;;
60851;SDS011;48553;50.766;2.900;2023-02-03T11:04:48;7.10;;;1.38;;
60851;SDS011;48553;50.766;2.900;2023-02-03T11:08:14;4.45;;;1.10;;
60851;SDS011;48553;50.766;2.900;2023-02-03T11:11:29;3.67;;;1.20;;
60851;SDS011;48553;50.766;2.900;2023-02-03T11:14:38;5.55;;;1.20;;
60851;SDS011;48553;50.766;2.900;2023-02-03T11:17:44;7.60;;;1.42;;
60851;SDS011;48553;50.766;2.900;2023-02-03T11:20:45;6.00;;;1.13;;
60851;SDS011;48553;50.766;2.900;2023-02-03T11:27:16;4.40;;;1.30;;
60851;SDS011;48553;50.766;2.900;2023-02-03T11:30:19;5.82;;;1.05;;
60851;SDS011;48553;50.766;2.900;2023-02-03T11:33:24;5.15;;;1.27;;
60851;SDS011;48553;50.766;2.900;2023-02-03T11:36:28;6.40;;;1.10;;
60851;SDS011;48553;50.766;2.900;2023-02-03T11:39:30;3.83;;;1.17;;
60851;SDS011;48553;50.766;2.900;2023-02-03T11:42:38;5.60;;;1.20;;
60851;SDS011;48553;50.766;2.900;2023-02-03T11:45:44;4.82;;;1.30;;
60851;SDS011;48553;50.766;2.900;2023-02-03T11:56:00;4.43;;;1.30;;
60851;SDS011;48553;50.766;2.900;2023-02-03T12:09:36;5.15;;;1.38;;
60851;SDS011;48553;50.766;2.900;2023-02-03T12:13:15;6.07;;;1.33;;
60851;SDS011;48553;50.766;2.900;2023-02-03T12:16:40;4.22;;;1.17;;
60851;SDS011;48553;50.766;2.900;2023-02-03T12:23:41;7.10;;;1.70;;
60851;SDS011;48553;50.766;2.900;2023-02-03T12:27:05;6.40;;;1.42;;
60851;SDS011;48553;50.766;2.900;2023-02-03T12:30:24;5.20;;;1.20;;
60851;SDS011;48553;50.766;2.900;2023-02-03T12:33:37;4.35;;;1.42;;
60851;SDS011;48553;50.766;2.900;2023-02-03T12:40:15;6.05;;;1.58;;
60851;SDS011;48553;50.766;2.900;2023-02-03T12:46:45;5.93;;;2.05;;
60851;SDS011;48553;50.766;2.900;2023-02-03T12:49:56;3.10;;;1.80;;
60851;SDS011;48553;50.766;2.900;2023-02-03T12:53:06;4.65;;;1.80;;
60851;SDS011;48553;50.766;2.900;2023-02-03T12:56:14;6.43;;;2.25;;
60851;SDS011;48553;50.766;2.900;2023-02-03T12:59:24;4.72;;;1.90;;
60851;SDS011;48553;50.766;2.900;2023-02-03T13:02:30;4.45;;;2.08;;
60851;SDS011;48553;50.766;2.900;2023-02-03T13:15:46;6.28;;;1.75;;
60851;SDS011;48553;50.766;2.900;2023-02-03T13:18:52;5.32;;;1.98;;
60851;SDS011;48553;50.766;2.900;2023-02-03T13:22:00;4.60;;;1.75;;
60851;SDS011;48553;50.766;2.900;2023-02-03T13:25:04;6.15;;;1.90;;
60851;SDS011;48553;50.766;2.900;2023-02-03T13:31:42;5.38;;;1.63;;
60851;SDS011;48553;50.766;2.900;2023-02-03T13:35:09;5.55;;;1.70;;
60851;SDS011;48553;50.766;2.900;2023-02-03T13:38:25;6.10;;;1.88;;
60851;SDS011;48553;50.766;2.900;2023-02-03T13:41:48;7.63;;;1.63;;
60851;SDS011;48553;50.766;2.900;2023-02-03T13:44:54;4.45;;;1.70;;
60851;SDS011;48553;50.766;2.900;2023-02-03T13:48:04;6.40;;;1.92;;
60851;SDS011;48553;50.766;2.900;2023-02-03T13:51:42;5.60;;;1.70;;
60851;SDS011;48553;50.766;2.900;2023-02-03T13:54:41;5.03;;;1.85;;
60851;SDS011;48553;50.766;2.900;2023-02-03T13:57:43;4.80;;;2.03;;
60851;SDS011;48553;50.766;2.900;2023-02-03T14:03:43;4.05;;;2.20;;
60851;SDS011;48553;50.766;2.900;2023-02-03T14:09:54;5.07;;;1.63;;
60851;SDS011;48553;50.766;2.900;2023-02-03T14:13:18;4.60;;;1.65;;
60851;SDS011;48553;50.766;2.900;2023-02-03T14:16:21;5.50;;;2.05;;
60851;SDS011;48553;50.766;2.900;2023-02-03T14:22:25;4.00;;;1.80;;
60851;SDS011;48553;50.766;2.900;2023-02-03T14:25:26;4.65;;;1.73;;
60851;SDS011;48553;50.766;2.900;2023-02-03T14:28:48;5.85;;;1.80;;
60851;SDS011;48553;50.766;2.900;2023-02-03T14:31:53;5.53;;;2.20;;
60851;SDS011;48553;50.766;2.900;2023-02-03T14:34:56;6.47;;;2.03;;
60851;SDS011;48553;50.766;2.900;2023-02-03T14:38:00;6.90;;;1.88;;
60851;SDS011;48553;50.766;2.900;2023-02-03T14:41:03;5.65;;;2.08;;
60851;SDS011;48553;50.766;2.900;2023-02-03T14:48:03;4.53;;;1.75;;
60851;SDS011;48553;50.766;2.900;2023-02-03T14:58:49;6.97;;;1.80;;
60851;SDS011;48553;50.766;2.900;2023-02-03T15:11:42;5.05;;;1.80;;
60851;SDS011;48553;50.766;2.900;2023-02-03T15:14:43;6.55;;;2.00;;
60851;SDS011;48553;50.766;2.900;2023-02-03T15:17:44;6.47;;;2.15;;
60851;SDS011;48553;50.766;2.900;2023-02-03T15:20:44;6.00;;;1.90;;
60851;SDS011;48553;50.766;2.900;2023-02-03T15:23:46;7.93;;;1.95;;
60851;SDS011;48553;50.766;2.900;2023-02-03T15:26:54;6.53;;;2.13;;
60851;SDS011;48553;50.766;2.900;2023-02-03T15:29:55;7.30;;;2.13;;
60851;SDS011;48553;50.766;2.900;2023-02-03T15:33:05;5.97;;;2.30;;
60851;SDS011;48553;50.766;2.900;2023-02-03T15:36:54;9.25;;;2.30;;
60851;SDS011;48553;50.766;2.900;2023-02-03T15:49:33;6.55;;;2.25;;
60851;SDS011;48553;50.766;2.900;2023-02-03T15:52:39;7.60;;;2.33;;
60851;SDS011;48553;50.766;2.900;2023-02-03T15:55:42;9.10;;;2.25;;
60851;SDS011;48553;50.766;2.900;2023-02-03T15:58:47;7.30;;;2.42;;
60851;SDS011;48553;50.766;2.900;2023-02-03T16:01:48;8.05;;;2.45;;
60851;SDS011;48553;50.766;2.900;2023-02-03T16:04:49;7.45;;;2.25;;
60851;SDS011;48553;50.766;2.900;2023-02-03T16:07:51;5.28;;;2.55;;
60851;SDS011;48553;50.766;2.900;2023-02-03T16:10:51;5.05;;;2.35;;
60851;SDS011;48553;50.766;2.900;2023-02-03T16:13:52;7.00;;;2.30;;
60851;SDS011;48553;50.766;2.900;2023-02-03T16:16:56;7.15;;;2.78;;
60851;SDS011;48553;50.766;2.900;2023-02-03T16:23:18;6.53;;;2.58;;
60851;SDS011;48553;50.766;2.900;2023-02-03T16:26:24;7.30;;;2.65;;
60851;SDS011;48553;50.766;2.900;2023-02-03T16:29:27;7.20;;;2.60;;
60851;SDS011;48553;50.766;2.900;2023-02-03T16:36:27;6.75;;;2.83;;
60851;SDS011;48553;50.766;2.900;2023-02-03T16:39:46;8.43;;;3.03;;
60851;SDS011;48553;50.766;2.900;2023-02-03T16:43:08;9.02;;;3.15;;
60851;SDS011;48553;50.766;2.900;2023-02-03T16:46:30;7.65;;;3.08;;
60851;SDS011;48553;50.766;2.900;2023-02-03T16:49:49;9.98;;;3.17;;
60851;SDS011;48553;50.766;2.900;2023-02-03T16:53:12;10.02;;;3.28;;
60851;SDS011;48553;50.766;2.900;2023-02-03T16:56:14;8.18;;;3.30;;
60851;SDS011;48553;50.766;2.900;2023-02-03T16:59:17;8.05;;;3.10;;
60851;SDS011;48553;50.766;2.900;2023-02-03T17:02:18;9.13;;;3.53;;
60851;SDS011;48553;50.766;2.900;2023-02-03T17:05:18;8.73;;;3.70;;
60851;SDS011;48553;50.766;2.900;2023-02-03T17:08:20;7.78;;;3.45;;
60851;SDS011;48553;50.766;2.900;2023-02-03T17:11:22;11.27;;;3.45;;
60851;SDS011;48553;50.766;2.900;2023-02-03T17:14:23;9.75;;;3.28;;
60851;SDS011;48553;50.766;2.900;2023-02-03T17:17:23;11.60;;;3.90;;
60851;SDS011;48553;50.766;2.900;2023-02-03T17:20:24;8.57;;;3.72;;
60851;SDS011;48553;50.766;2.900;2023-02-03T17:23:24;10.18;;;4.00;;
60851;SDS011;48553;50.766;2.900;2023-02-03T17:26:25;9.20;;;3.83;;
60851;SDS011;48553;50.766;2.900;2023-02-03T17:29:25;9.10;;;3.80;;
60851;SDS011;48553;50.766;2.900;2023-02-03T17:32:25;13.32;;;4.20;;
60851;SDS011;48553;50.766;2.900;2023-02-03T17:35:26;8.38;;;3.97;;
60851;SDS011;48553;50.766;2.900;2023-02-03T17:38:27;9.07;;;4.28;;
60851;SDS011;48553;50.766;2.900;2023-02-03T17:41:27;10.20;;;4.13;;
60851;SDS011;48553;50.766;2.900;2023-02-03T17:44:28;9.77;;;4.20;;
60851;SDS011;48553;50.766;2.900;2023-02-03T17:47:28;10.80;;;4.88;;
60851;SDS011;48553;50.766;2.900;2023-02-03T17:50:29;11.38;;;4.95;;
60851;SDS011;48553;50.766;2.900;2023-02-03T17:53:29;12.38;;;5.38;;
60851;SDS011;48553;50.766;2.900;2023-02-03T17:56:29;11.38;;;5.68;;
60851;SDS011;48553;50.766;2.900;2023-02-03T17:59:30;14.23;;;5.57;;
60851;SDS011;48553;50.766;2.900;2023-02-03T18:02:33;14.45;;;5.63;;
60851;SDS011;48553;50.766;2.900;2023-02-03T18:05:34;13.27;;;5.78;;
60851;SDS011;48553;50.766;2.900;2023-02-03T18:08:36;15.70;;;5.82;;
60851;SDS011;48553;50.766;2.900;2023-02-03T18:11:36;11.27;;;5.55;;
60851;SDS011;48553;50.766;2.900;2023-02-03T18:14:37;18.20;;;6.32;;
60851;SDS011;48553;50.766;2.900;2023-02-03T18:17:37;10.73;;;6.35;;
60851;SDS011;48553;50.766;2.900;2023-02-03T18:20:38;16.52;;;6.53;;
60851;SDS011;48553;50.766;2.900;2023-02-03T18:23:38;13.52;;;6.80;;
60851;SDS011;48553;50.766;2.900;2023-02-03T18:26:46;14.23;;;6.40;;
60851;SDS011;48553;50.766;2.900;2023-02-03T18:29:49;14.48;;;6.22;;
60851;SDS011;48553;50.766;2.900;2023-02-03T18:32:50;14.38;;;6.38;;
60851;SDS011;48553;50.766;2.900;2023-02-03T18:35:51;11.30;;;6.68;;
60851;SDS011;48553;50.766;2.900;2023-02-03T18:38:52;17.90;;;6.45;;
60851;SDS011;48553;50.766;2.900;2023-02-03T18:41:52;17.63;;;6.55;;
60851;SDS011;48553;50.766;2.900;2023-02-03T18:44:53;14.38;;;6.53;;
60851;SDS011;48553;50.766;2.900;2023-02-03T18:47:53;18.80;;;7.15;;
60851;SDS011;48553;50.766;2.900;2023-02-03T18:50:54;18.17;;;6.85;;
60851;SDS011;48553;50.766;2.900;2023-02-03T18:53:55;14.73;;;7.05;;
60851;SDS011;48553;50.766;2.900;2023-02-03T18:56:57;13.45;;;6.72;;
60851;SDS011;48553;50.766;2.900;2023-02-03T18:59:57;14.10;;;7.03;;
60851;SDS011;48553;50.766;2.900;2023-02-03T19:02:58;15.55;;;7.28;;
60851;SDS011;48553;50.766;2.900;2023-02-03T19:05:58;17.27;;;7.55;;
60851;SDS011;48553;50.766;2.900;2023-02-03T19:08:59;16.15;;;7.60;;
60851;SDS011;48553;50.766;2.900;2023-02-03T19:12:01;16.98;;;7.13;;
60851;SDS011;48553;50.766;2.900;2023-02-03T19:15:03;15.50;;;7.38;;
60851;SDS011;48553;50.766;2.900;2023-02-03T19:18:03;18.45;;;7.40;;
60851;SDS011;48553;50.766;2.900;2023-02-03T19:21:05;17.08;;;7.65;;
60851;SDS011;48553;50.766;2.900;2023-02-03T19:24:06;18.85;;;7.55;;
60851;SDS011;48553;50.766;2.900;2023-02-03T19:27:06;18.73;;;7.38;;
60851;SDS011;48553;50.766;2.900;2023-02-03T19:30:07;16.50;;;7.78;;
60851;SDS011;48553;50.766;2.900;2023-02-03T19:33:10;20.00;;;7.90;;
60851;SDS011;48553;50.766;2.900;2023-02-03T19:36:11;19.25;;;7.78;;
60851;SDS011;48553;50.766;2.900;2023-02-03T19:39:12;19.33;;;7.88;;
60851;SDS011;48553;50.766;2.900;2023-02-03T19:42:12;18.10;;;7.88;;
60851;SDS011;48553;50.766;2.900;2023-02-03T19:45:13;16.70;;;7.53;;
60851;SDS011;48553;50.766;2.900;2023-02-03T19:48:13;18.17;;;8.30;;
60851;SDS011;48553;50.766;2.900;2023-02-03T19:51:14;18.30;;;7.60;;
60851;SDS011;48553;50.766;2.900;2023-02-03T19:54:15;19.48;;;8.35;;
60851;SDS011;48553;50.766;2.900;2023-02-03T19:57:15;21.88;;;8.07;;
60851;SDS011;48553;50.766;2.900;2023-02-03T20:00:16;18.90;;;8.02;;
60851;SDS011;48553;50.766;2.900;2023-02-03T20:03:16;19.73;;;8.70;;
60851;SDS011;48553;50.766;2.900;2023-02-03T20:06:18;17.23;;;8.65;;
60851;SDS011;48553;50.766;2.900;2023-02-03T20:09:19;20.05;;;8.75;;
60851;SDS011;48553;50.766;2.900;2023-02-03T20:12:19;20.33;;;8.85;;
60851;SDS011;48553;50.766;2.900;2023-02-03T20:15:20;16.85;;;8.60;;
60851;SDS011;48553;50.766;2.900;2023-02-03T20:18:21;19.63;;;8.80;;
60851;SDS011;48553;50.766;2.900;2023-02-03T20:21:21;20.83;;;8.60;;
60851;SDS011;48553;50.766;2.900;2023-02-03T20:24:21;17.90;;;8.60;;
60851;SDS011;48553;50.766;2.900;2023-02-03T20:27:22;19.25;;;9.20;;
60851;SDS011;48553;50.766;2.900;2023-02-03T20:30:22;20.65;;;8.98;;
60851;SDS011;48553;50.766;2.900;2023-02-03T20:33:23;18.55;;;9.13;;
60851;SDS011;48553;50.766;2.900;2023-02-03T20:36:25;17.58;;;9.15;;
60851;SDS011;48553;50.766;2.900;2023-02-03T20:39:26;21.63;;;9.75;;
60851;SDS011;48553;50.766;2.900;2023-02-03T20:42:26;20.35;;;9.68;;
60851;SDS011;48553;50.766;2.900;2023-02-03T20:45:27;19.45;;;9.25;;
60851;SDS011;48553;50.766;2.900;2023-02-03T20:48:27;19.35;;;9.10;;
60851;SDS011;48553;50.766;2.900;2023-02-03T20:51:27;18.40;;;9.27;;
60851;SDS011;48553;50.766;2.900;2023-02-03T20:54:28;22.08;;;10.13;;
60851;SDS011;48553;50.766;2.900;2023-02-03T20:57:29;23.67;;;9.25;;
60851;SDS011;48553;50.766;2.900;2023-02-03T21:00:29;20.10;;;9.32;;